createdAt,value
2017-12-16T00:01:00.813Z,965.6
2017-12-16T00:02:10.795Z,965.58
2017-12-16T00:03:20.250Z,965.59
2017-12-16T00:04:30.224Z,965.58
2017-12-16T00:05:40.262Z,965.6
2017-12-16T00:06:50.249Z,965.58
2017-12-16T00:08:00.226Z,965.61
2017-12-16T00:09:10.206Z,965.61
2017-12-16T00:10:19.918Z,965.6
2017-12-16T00:11:29.371Z,965.65
2017-12-16T00:12:39.359Z,965.65
2017-12-16T00:13:49.069Z,965.64
2017-12-16T00:14:59.047Z,965.67
2017-12-16T00:16:09.048Z,965.71
2017-12-16T00:17:18.792Z,965.69
2017-12-16T00:18:28.780Z,965.68
2017-12-16T00:19:38.774Z,965.71
2017-12-16T00:20:48.751Z,965.72
2017-12-16T00:21:58.465Z,965.75
2017-12-16T00:23:08.252Z,965.77
2017-12-16T00:24:18.234Z,965.74
2017-12-16T00:25:28.217Z,965.73
2017-12-16T00:26:38.200Z,965.75
2017-12-16T00:27:48.177Z,965.7
2017-12-16T00:28:58.160Z,965.73
2017-12-16T00:30:07.876Z,965.74
2017-12-16T00:31:17.860Z,965.77
2017-12-16T00:32:27.573Z,965.77
2017-12-16T00:33:37.561Z,965.75
2017-12-16T00:34:47.547Z,965.81
2017-12-16T00:35:57.539Z,965.8
2017-12-16T00:37:07.518Z,965.8
2017-12-16T00:38:17.233Z,965.79
2017-12-16T00:39:26.961Z,965.82
2017-12-16T00:40:36.956Z,965.79
2017-12-16T00:41:46.942Z,965.86
2017-12-16T00:42:56.923Z,965.88
2017-12-16T00:44:06.905Z,965.8
2017-12-16T00:45:16.617Z,965.9
2017-12-16T00:46:26.330Z,965.84
2017-12-16T00:47:36.049Z,965.88
2017-12-16T00:48:48.031Z,965.92
2017-12-16T00:49:58.013Z,965.94
2017-12-16T00:51:07.992Z,965.96
2017-12-16T00:52:17.971Z,965.93
2017-12-16T00:53:27.948Z,965.95
2017-12-16T00:54:37.924Z,965.93
2017-12-16T00:55:47.912Z,965.97
2017-12-16T00:56:57.890Z,965.95
2017-12-16T00:58:07.873Z,965.95
2017-12-16T00:59:17.851Z,965.91
2017-12-16T01:00:27.566Z,965.95
2017-12-16T01:01:37.280Z,965.92
2017-12-16T01:02:47.259Z,965.94
2017-12-16T01:03:57.241Z,965.95
2017-12-16T01:05:07.220Z,965.96
2017-12-16T01:06:17.208Z,965.98
2017-12-16T01:07:26.924Z,965.96
2017-12-16T01:08:36.375Z,965.99
2017-12-16T01:09:46.352Z,966
2017-12-16T01:10:56.333Z,966
2017-12-16T01:12:06.319Z,965.94
2017-12-16T01:13:16.297Z,965.98
2017-12-16T01:14:26.019Z,966.02
2017-12-16T01:15:36.001Z,966.02
2017-12-16T01:16:45.979Z,966.04
2017-12-16T01:17:55.432Z,966.05
2017-12-16T01:19:05.419Z,966.08
2017-12-16T01:20:15.408Z,966.08
2017-12-16T01:21:25.388Z,966.08
2017-12-16T01:22:35.101Z,966.07
2017-12-16T01:23:46.821Z,966.08
2017-12-16T01:24:56.535Z,966.07
2017-12-16T01:26:06.519Z,966.11
2017-12-16T01:27:16.498Z,966.09
2017-12-16T01:28:26.479Z,966.14
2017-12-16T01:29:36.461Z,966.15
2017-12-16T01:30:46.449Z,966.22
2017-12-16T01:31:56.167Z,966.2
2017-12-16T01:33:06.145Z,966.23
2017-12-16T01:34:16.129Z,966.22
2017-12-16T01:35:26.116Z,966.18
2017-12-16T01:36:36.097Z,966.21
2017-12-16T01:37:45.810Z,966.2
2017-12-16T01:38:55.790Z,966.21
2017-12-16T01:40:05.774Z,966.26
2017-12-16T01:41:15.487Z,966.23
2017-12-16T01:42:25.203Z,966.25
2017-12-16T01:43:35.184Z,966.27
2017-12-16T01:44:45.167Z,966.23
2017-12-16T01:45:55.153Z,966.25
2017-12-16T01:47:05.135Z,966.25
2017-12-16T01:48:15.112Z,966.24
2017-12-16T01:49:24.826Z,966.22
2017-12-16T01:50:34.804Z,966.23
2017-12-16T01:51:44.793Z,966.25
2017-12-16T01:52:54.779Z,966.27
2017-12-16T01:54:04.501Z,966.26
2017-12-16T01:55:14.483Z,966.26
2017-12-16T01:56:24.204Z,966.25
2017-12-16T01:57:34.181Z,966.25
2017-12-16T01:58:44.178Z,966.26
2017-12-16T01:59:54.165Z,966.31
2017-12-16T02:01:04.212Z,966.31
2017-12-16T02:02:14.192Z,966.31
2017-12-16T02:03:24.169Z,966.32
2017-12-16T02:04:34.155Z,966.33
2017-12-16T02:05:44.137Z,966.36
2017-12-16T02:06:54.114Z,966.34
2017-12-16T02:08:04.094Z,966.34
2017-12-16T02:09:14.071Z,966.35
2017-12-16T02:10:24.058Z,966.36
2017-12-16T02:11:34.046Z,966.38
2017-12-16T02:12:44.030Z,966.34
2017-12-16T02:13:54.014Z,966.39
2017-12-16T02:15:04.008Z,966.43
2017-12-16T02:16:13.984Z,966.42
2017-12-16T02:17:23.972Z,966.41
2017-12-16T02:18:33.685Z,966.43
2017-12-16T02:19:43.664Z,966.47
2017-12-16T02:20:53.643Z,966.5
2017-12-16T02:22:03.358Z,966.45
2017-12-16T02:23:13.339Z,966.48
2017-12-16T02:24:23.051Z,966.53
2017-12-16T02:25:33.028Z,966.57
2017-12-16T02:26:42.740Z,966.55
2017-12-16T02:27:52.717Z,966.59
2017-12-16T02:29:02.693Z,966.55
2017-12-16T02:30:12.673Z,966.58
2017-12-16T02:31:22.656Z,966.56
2017-12-16T02:32:32.646Z,966.62
2017-12-16T02:33:42.626Z,966.6
2017-12-16T02:34:52.623Z,966.59
2017-12-16T02:36:02.618Z,966.53
2017-12-16T02:37:12.073Z,966.6
2017-12-16T02:38:22.061Z,966.56
2017-12-16T02:39:32.038Z,966.56
2017-12-16T02:40:42.039Z,966.63
2017-12-16T02:41:52.031Z,966.6
2017-12-16T02:43:02.014Z,966.64
2017-12-16T02:44:11.740Z,966.6
2017-12-16T02:45:21.720Z,966.65
2017-12-16T02:46:31.716Z,966.61
2017-12-16T02:47:41.704Z,966.69
2017-12-16T02:48:51.687Z,966.67
2017-12-16T02:50:01.673Z,966.67
2017-12-16T02:51:11.662Z,966.68
2017-12-16T02:52:21.389Z,966.59
2017-12-16T02:53:31.373Z,966.61
2017-12-16T02:54:41.093Z,966.65
2017-12-16T02:55:51.091Z,966.74
2017-12-16T02:57:01.073Z,966.7
2017-12-16T02:58:11.065Z,966.69
2017-12-16T02:59:21.044Z,966.68
2017-12-16T03:00:31.024Z,966.68
2017-12-16T03:01:41.011Z,966.72
2017-12-16T03:02:50.990Z,966.75
2017-12-16T03:04:00.971Z,966.73
2017-12-16T03:05:10.955Z,966.75
2017-12-16T03:06:20.938Z,966.77
2017-12-16T03:07:30.913Z,966.75
2017-12-16T03:08:40.628Z,966.79
2017-12-16T03:09:50.605Z,966.77
2017-12-16T03:11:00.641Z,966.76
2017-12-16T03:12:10.633Z,966.8
2017-12-16T03:13:20.610Z,966.76
2017-12-16T03:14:30.591Z,966.77
2017-12-16T03:15:40.574Z,966.76
2017-12-16T03:16:50.284Z,966.77
2017-12-16T03:18:00.264Z,966.77
2017-12-16T03:19:09.974Z,966.76
2017-12-16T03:20:20.006Z,966.77
2017-12-16T03:21:29.991Z,966.75
2017-12-16T03:22:39.710Z,966.8
2017-12-16T03:23:49.685Z,966.73
2017-12-16T03:24:59.669Z,966.75
2017-12-16T03:26:09.647Z,966.81
2017-12-16T03:27:19.626Z,966.83
2017-12-16T03:28:29.612Z,966.83
2017-12-16T03:29:39.600Z,966.79
2017-12-16T03:30:49.615Z,966.85
2017-12-16T03:31:59.342Z,966.82
2017-12-16T03:33:09.323Z,966.81
2017-12-16T03:34:19.046Z,966.82
2017-12-16T03:35:29.021Z,966.87
2017-12-16T03:36:38.737Z,966.89
2017-12-16T03:37:48.724Z,966.91
2017-12-16T03:38:58.704Z,966.9
2017-12-16T03:40:08.696Z,966.87
2017-12-16T03:41:18.673Z,966.93
2017-12-16T03:42:28.383Z,966.86
2017-12-16T03:43:38.370Z,966.86
2017-12-16T03:44:48.352Z,966.95
2017-12-16T03:45:58.331Z,966.98
2017-12-16T03:47:08.043Z,966.91
2017-12-16T03:48:17.759Z,966.98
2017-12-16T03:49:28.041Z,966.99
2017-12-16T03:50:38.021Z,967.04
2017-12-16T03:51:47.998Z,966.98
2017-12-16T03:52:58.028Z,967.04
2017-12-16T03:54:08.011Z,967.03
2017-12-16T03:55:17.988Z,967.04
2017-12-16T03:56:27.967Z,967.02
2017-12-16T03:57:37.952Z,967.04
2017-12-16T03:58:47.942Z,967.08
2017-12-16T03:59:57.929Z,967.06
2017-12-16T04:03:39.943Z,967.05
2017-12-16T04:04:49.917Z,967.07
2017-12-16T04:05:59.895Z,967.05
2017-12-16T04:07:09.611Z,967.05
2017-12-16T04:08:19.588Z,967.18
2017-12-16T04:09:29.563Z,967.18
2017-12-16T04:10:39.545Z,967.17
2017-12-16T04:11:49.585Z,967.16
2017-12-16T04:12:59.297Z,967.17
2017-12-16T04:14:09.276Z,967.18
2017-12-16T04:15:18.993Z,967.23
2017-12-16T04:16:28.969Z,967.24
2017-12-16T04:17:38.682Z,967.2
2017-12-16T04:18:48.662Z,967.2
2017-12-16T04:19:58.657Z,967.2
2017-12-16T04:21:08.639Z,967.25
2017-12-16T04:22:18.645Z,967.2
2017-12-16T04:23:28.100Z,967.24
2017-12-16T04:24:37.548Z,967.23
2017-12-16T04:25:47.532Z,967.3
2017-12-16T04:26:57.511Z,967.22
2017-12-16T04:28:07.502Z,967.28
2017-12-16T04:29:17.485Z,967.3
2017-12-16T04:30:27.463Z,967.3
2017-12-16T04:31:37.441Z,967.36
2017-12-16T04:32:47.153Z,967.35
2017-12-16T04:33:57.128Z,967.37
2017-12-16T04:35:07.103Z,967.4
2017-12-16T04:36:17.079Z,967.37
2017-12-16T04:37:27.056Z,967.37
2017-12-16T04:38:37.033Z,967.39
2017-12-16T04:39:47.015Z,967.37
2017-12-16T04:40:56.993Z,967.4
2017-12-16T04:42:06.984Z,967.41
2017-12-16T04:43:16.966Z,967.46
2017-12-16T04:44:26.433Z,967.44
2017-12-16T04:45:36.414Z,967.46
2017-12-16T04:46:46.389Z,967.44
2017-12-16T04:47:56.376Z,967.5
2017-12-16T04:49:06.362Z,967.47
2017-12-16T04:50:16.340Z,967.42
2017-12-16T04:51:26.318Z,967.52
2017-12-16T04:52:36.295Z,967.48
2017-12-16T04:53:46.275Z,967.48
2017-12-16T04:54:55.996Z,967.49
2017-12-16T04:56:05.977Z,967.52
2017-12-16T04:57:15.964Z,967.54
2017-12-16T04:58:25.943Z,967.56
2017-12-16T04:59:35.975Z,967.59
2017-12-16T05:00:45.689Z,967.55
2017-12-16T05:01:55.404Z,967.55
2017-12-16T05:03:05.383Z,967.56
2017-12-16T05:04:15.369Z,967.59
2017-12-16T05:05:25.131Z,967.59
2017-12-16T05:06:35.113Z,967.58
2017-12-16T05:07:45.101Z,967.62
2017-12-16T05:08:55.077Z,967.67
2017-12-16T05:10:05.053Z,967.63
2017-12-16T05:11:15.029Z,967.62
2017-12-16T05:12:25.056Z,967.69
2017-12-16T05:13:35.043Z,967.68
2017-12-16T05:14:45.023Z,967.62
2017-12-16T05:15:55.004Z,967.67
2017-12-16T05:17:04.977Z,967.65
2017-12-16T05:18:14.689Z,967.66
2017-12-16T05:19:24.670Z,967.64
2017-12-16T05:20:34.382Z,967.71
2017-12-16T05:21:44.359Z,967.67
2017-12-16T05:22:54.341Z,967.72
2017-12-16T05:24:04.055Z,967.72
2017-12-16T05:25:14.038Z,967.71
2017-12-16T05:26:24.017Z,967.7
2017-12-16T05:27:33.999Z,967.72
2017-12-16T05:28:43.982Z,967.73
2017-12-16T05:29:54.012Z,967.69
2017-12-16T05:31:04.000Z,967.73
2017-12-16T05:32:13.990Z,967.75
2017-12-16T05:33:23.975Z,967.76
2017-12-16T05:34:33.950Z,967.74
2017-12-16T05:35:43.666Z,967.74
2017-12-16T05:36:53.642Z,967.71
2017-12-16T05:38:03.627Z,967.71
2017-12-16T05:39:13.609Z,967.82
2017-12-16T05:40:23.077Z,967.77
2017-12-16T05:41:33.056Z,967.84
2017-12-16T05:42:43.041Z,967.88
2017-12-16T05:43:52.754Z,967.84
2017-12-16T05:45:02.735Z,967.82
2017-12-16T05:46:12.767Z,967.79
2017-12-16T05:47:22.745Z,967.83
2017-12-16T05:48:32.720Z,967.89
2017-12-16T05:49:42.698Z,967.91
2017-12-16T05:50:52.738Z,967.9
2017-12-16T05:52:02.184Z,967.86
2017-12-16T05:53:11.907Z,967.9
2017-12-16T05:54:21.888Z,967.91
2017-12-16T05:55:31.869Z,967.94
2017-12-16T05:56:41.867Z,967.91
2017-12-16T05:57:51.852Z,967.94
2017-12-16T05:59:01.831Z,967.83
2017-12-16T06:00:11.909Z,967.93
2017-12-16T06:01:21.619Z,967.87
2017-12-16T06:02:31.602Z,967.87
2017-12-16T06:03:41.583Z,967.85
2017-12-16T06:04:51.564Z,967.99
2017-12-16T06:06:01.545Z,967.89
2017-12-16T06:07:11.258Z,967.92
2017-12-16T06:08:21.246Z,967.97
2017-12-16T06:09:31.224Z,967.97
2017-12-16T06:10:41.198Z,967.94
2017-12-16T06:11:51.181Z,968.03
2017-12-16T06:13:01.161Z,967.96
2017-12-16T06:14:11.137Z,968.11
2017-12-16T06:15:21.118Z,968.07
2017-12-16T06:16:31.096Z,968.12
2017-12-16T06:17:43.231Z,968.13
2017-12-16T06:18:53.219Z,968.11
2017-12-16T06:20:03.199Z,968.17
2017-12-16T06:21:12.665Z,968.16
2017-12-16T06:22:22.378Z,968.26
2017-12-16T06:23:32.094Z,968.24
2017-12-16T06:24:42.074Z,968.33
2017-12-16T06:25:51.784Z,968.32
2017-12-16T06:27:01.497Z,968.37
2017-12-16T06:28:11.479Z,968.4
2017-12-16T06:29:21.460Z,968.4
2017-12-16T06:30:31.444Z,968.41
2017-12-16T06:31:41.439Z,968.44
2017-12-16T06:32:51.417Z,968.52
2017-12-16T06:34:01.400Z,968.53
2017-12-16T06:35:11.116Z,968.52
2017-12-16T06:36:21.097Z,968.49
2017-12-16T06:37:31.082Z,968.46
2017-12-16T06:38:41.058Z,968.53
2017-12-16T06:39:50.784Z,968.56
2017-12-16T06:41:00.757Z,968.52
2017-12-16T06:42:10.734Z,968.68
2017-12-16T06:43:20.710Z,968.66
2017-12-16T06:44:30.423Z,968.69
2017-12-16T06:45:40.398Z,968.66
2017-12-16T06:46:50.108Z,968.68
2017-12-16T06:48:00.095Z,968.64
2017-12-16T06:49:10.077Z,968.68
2017-12-16T06:50:20.066Z,968.82
2017-12-16T06:51:30.042Z,968.79
2017-12-16T06:52:39.751Z,968.8
2017-12-16T06:53:49.732Z,968.8
2017-12-16T06:54:59.710Z,968.85
2017-12-16T06:56:09.687Z,968.89
2017-12-16T06:57:19.668Z,968.89
2017-12-16T06:58:29.648Z,968.95
2017-12-16T06:59:39.627Z,969.01
2017-12-16T07:00:49.609Z,968.99
2017-12-16T07:01:59.581Z,969.02
2017-12-16T07:03:09.567Z,969.06
2017-12-16T07:04:19.550Z,969.07
2017-12-16T07:05:29.540Z,969.03
2017-12-16T07:06:39.515Z,969.06
2017-12-16T07:07:49.492Z,969.08
2017-12-16T07:08:59.476Z,969.03
2017-12-16T07:10:09.190Z,969.09
2017-12-16T07:11:19.177Z,969.06
2017-12-16T07:12:29.160Z,969.06
2017-12-16T07:13:38.875Z,969.12
2017-12-16T07:14:48.626Z,969.11
2017-12-16T07:15:58.650Z,969.12
2017-12-16T07:17:08.362Z,969.17
2017-12-16T07:18:18.337Z,969.21
2017-12-16T07:19:28.055Z,969.19
2017-12-16T07:20:37.771Z,969.2
2017-12-16T07:21:47.759Z,969.24
2017-12-16T07:22:57.743Z,969.28
2017-12-16T07:24:07.726Z,969.3
2017-12-16T07:25:17.437Z,969.26
2017-12-16T07:26:27.415Z,969.31
2017-12-16T07:27:37.399Z,969.34
2017-12-16T07:28:47.387Z,969.33
2017-12-16T07:29:57.368Z,969.39
2017-12-16T07:31:07.084Z,969.37
2017-12-16T07:32:17.065Z,969.38
2017-12-16T07:33:27.053Z,969.37
2017-12-16T07:34:36.763Z,969.41
2017-12-16T07:35:46.475Z,969.39
2017-12-16T07:36:56.455Z,969.43
2017-12-16T07:38:06.442Z,969.48
2017-12-16T07:39:16.420Z,969.5
2017-12-16T07:40:26.402Z,969.5
2017-12-16T07:41:36.121Z,969.5
2017-12-16T07:42:46.102Z,969.52
2017-12-16T07:43:56.080Z,969.5
2017-12-16T07:45:05.828Z,969.52
2017-12-16T07:46:15.591Z,969.59
2017-12-16T07:47:25.579Z,969.55
2017-12-16T07:48:35.299Z,969.62
2017-12-16T07:49:45.278Z,969.62
2017-12-16T07:50:54.994Z,969.7
2017-12-16T07:52:04.708Z,969.71
2017-12-16T07:53:14.437Z,969.71
2017-12-16T07:54:24.420Z,969.65
2017-12-16T07:55:34.404Z,969.77
2017-12-16T07:56:44.383Z,969.77
2017-12-16T07:57:54.100Z,969.79
2017-12-16T07:59:04.086Z,969.84
2017-12-16T08:00:14.098Z,969.87
2017-12-16T08:01:24.094Z,969.87
2017-12-16T08:02:34.087Z,969.86
2017-12-16T08:03:43.799Z,969.86
2017-12-16T08:04:53.510Z,969.87
2017-12-16T08:06:03.241Z,969.94
2017-12-16T08:07:13.221Z,969.9
2017-12-16T08:08:23.207Z,969.94
2017-12-16T08:09:33.187Z,970
2017-12-16T08:10:43.164Z,970.03
2017-12-16T08:11:53.146Z,970.07
2017-12-16T08:13:03.168Z,970.06
2017-12-16T08:14:13.149Z,970.07
2017-12-16T08:15:23.128Z,970.11
2017-12-16T08:16:33.115Z,970.17
2017-12-16T08:17:42.829Z,970.16
2017-12-16T08:18:52.808Z,970.17
2017-12-16T08:20:02.263Z,970.19
2017-12-16T08:21:12.251Z,970.24
2017-12-16T08:22:21.981Z,970.23
2017-12-16T08:23:31.698Z,970.27
2017-12-16T08:24:41.413Z,970.24
2017-12-16T08:25:51.394Z,970.29
2017-12-16T08:27:01.377Z,970.28
2017-12-16T08:28:11.089Z,970.29
2017-12-16T08:29:21.075Z,970.3
2017-12-16T08:30:31.050Z,970.34
2017-12-16T08:31:40.771Z,970.36
2017-12-16T08:32:50.494Z,970.41
2017-12-16T08:34:00.543Z,970.4
2017-12-16T08:35:10.529Z,970.38
2017-12-16T08:36:20.507Z,970.37
2017-12-16T08:37:30.226Z,970.46
2017-12-16T08:38:40.218Z,970.43
2017-12-16T08:39:50.267Z,970.43
2017-12-16T08:41:00.261Z,970.4
2017-12-16T08:42:10.239Z,970.5
2017-12-16T08:43:20.226Z,970.5
2017-12-16T08:44:29.946Z,970.48
2017-12-16T08:45:39.931Z,970.54
2017-12-16T08:46:49.915Z,970.54
2017-12-16T08:47:59.891Z,970.58
2017-12-16T08:49:09.883Z,970.64
2017-12-16T08:50:19.864Z,970.58
2017-12-16T08:51:29.850Z,970.67
2017-12-16T08:52:39.830Z,970.66
2017-12-16T08:53:49.811Z,970.72
2017-12-16T08:54:59.528Z,970.71
2017-12-16T08:56:09.511Z,970.72
2017-12-16T08:57:19.495Z,970.74
2017-12-16T08:58:29.476Z,970.72
2017-12-16T08:59:39.202Z,970.75
2017-12-16T09:00:49.179Z,970.78
2017-12-16T09:01:58.898Z,970.77
2017-12-16T09:03:08.610Z,970.84
2017-12-16T09:04:18.586Z,970.86
2017-12-16T09:05:28.565Z,970.89
2017-12-16T09:06:38.586Z,970.87
2017-12-16T09:07:48.565Z,970.95
2017-12-16T09:08:58.276Z,970.88
2017-12-16T09:10:07.991Z,970.89
2017-12-16T09:11:17.973Z,970.92
2017-12-16T09:12:27.950Z,970.91
2017-12-16T09:13:37.944Z,970.97
2017-12-16T09:14:47.927Z,970.97
2017-12-16T09:15:57.904Z,970.99
2017-12-16T09:17:07.886Z,971.02
2017-12-16T09:18:17.604Z,971.03
2017-12-16T09:19:27.583Z,971.09
2017-12-16T09:20:37.565Z,971.07
2017-12-16T09:21:47.540Z,971.09
2017-12-16T09:22:57.518Z,971.12
2017-12-16T09:24:07.238Z,971.11
2017-12-16T09:25:17.222Z,971.09
2017-12-16T09:26:27.205Z,971.12
2017-12-16T09:27:37.189Z,971.18
2017-12-16T09:28:47.177Z,971.2
2017-12-16T09:29:57.189Z,971.18
2017-12-16T09:31:07.193Z,971.21
2017-12-16T09:32:17.167Z,971.22
2017-12-16T09:33:26.879Z,971.27
2017-12-16T09:34:36.863Z,971.21
2017-12-16T09:35:46.844Z,971.31
2017-12-16T09:36:56.832Z,971.31
2017-12-16T09:38:06.812Z,971.32
2017-12-16T09:39:16.798Z,971.31
2017-12-16T09:40:26.781Z,971.37
2017-12-16T09:41:36.497Z,971.35
2017-12-16T09:42:46.219Z,971.4
2017-12-16T09:43:56.205Z,971.39
2017-12-16T09:45:05.928Z,971.4
2017-12-16T09:46:15.909Z,971.4
2017-12-16T09:47:27.885Z,971.47
2017-12-16T09:48:37.873Z,971.47
2017-12-16T09:49:47.596Z,971.46
2017-12-16T09:50:57.576Z,971.54
2017-12-16T09:52:07.556Z,971.49
2017-12-16T09:53:17.551Z,971.41
2017-12-16T09:54:27.272Z,971.42
2017-12-16T09:55:37.253Z,971.47
2017-12-16T09:56:47.248Z,971.52
2017-12-16T09:57:57.261Z,971.55
2017-12-16T09:59:08.983Z,971.56
2017-12-16T10:00:18.970Z,971.54
2017-12-16T10:01:28.951Z,971.58
2017-12-16T10:02:38.944Z,971.56
2017-12-16T10:03:48.661Z,971.58
2017-12-16T10:04:58.715Z,971.62
2017-12-16T10:06:08.691Z,971.62
2017-12-16T10:07:18.142Z,971.64
2017-12-16T10:08:28.127Z,971.66
2017-12-16T10:09:37.843Z,971.63
2017-12-16T10:10:47.828Z,971.72
2017-12-16T10:11:57.547Z,971.7
2017-12-16T10:13:07.260Z,971.7
2017-12-16T10:14:17.241Z,971.71
2017-12-16T10:15:27.221Z,971.7
2017-12-16T10:16:36.670Z,971.76
2017-12-16T10:17:46.649Z,971.81
2017-12-16T10:18:56.359Z,971.8
2017-12-16T10:20:06.409Z,971.78
2017-12-16T10:21:16.138Z,971.86
2017-12-16T10:22:26.124Z,971.85
2017-12-16T10:23:36.108Z,971.87
2017-12-16T10:24:46.087Z,971.86
2017-12-16T10:25:56.070Z,971.91
2017-12-16T10:27:05.784Z,971.91
2017-12-16T10:28:15.759Z,971.87
2017-12-16T10:29:25.743Z,971.95
2017-12-16T10:30:35.459Z,971.97
2017-12-16T10:31:45.173Z,972.04
2017-12-16T10:32:55.154Z,972.05
2017-12-16T10:34:05.134Z,972.01
2017-12-16T10:35:14.889Z,972.06
2017-12-16T10:36:24.604Z,972.06
2017-12-16T10:37:34.650Z,972.05
2017-12-16T10:38:44.644Z,972.12
2017-12-16T10:39:54.620Z,972.1
2017-12-16T10:41:04.605Z,972.1
2017-12-16T10:42:14.052Z,972.12
2017-12-16T10:43:23.769Z,972.13
2017-12-16T10:44:33.824Z,972.15
2017-12-16T10:45:43.806Z,972.14
2017-12-16T10:46:53.787Z,972.13
2017-12-16T10:48:03.837Z,972.15
2017-12-16T10:49:13.288Z,972.14
2017-12-16T10:50:23.008Z,972.12
2017-12-16T10:51:32.994Z,972.19
2017-12-16T10:52:42.981Z,972.14
2017-12-16T10:53:52.961Z,972.16
2017-12-16T10:55:02.943Z,972.18
2017-12-16T10:56:12.408Z,972.14
2017-12-16T10:57:22.397Z,972.14
2017-12-16T10:58:32.112Z,972.19
2017-12-16T10:59:42.090Z,972.16
2017-12-16T11:00:52.069Z,972.14
2017-12-16T11:02:02.047Z,972.16
2017-12-16T11:03:11.501Z,972.17
2017-12-16T11:04:21.482Z,972.12
2017-12-16T11:05:31.462Z,972.19
2017-12-16T11:06:41.447Z,972.19
2017-12-16T11:07:51.438Z,972.2
2017-12-16T11:09:01.417Z,972.25
2017-12-16T11:10:11.399Z,972.2
2017-12-16T11:11:21.114Z,972.25
2017-12-16T11:12:31.095Z,972.24
2017-12-16T11:13:40.806Z,972.28
2017-12-16T11:14:50.256Z,972.31
2017-12-16T11:16:00.232Z,972.35
2017-12-16T11:17:10.219Z,972.35
2017-12-16T11:18:20.207Z,972.32
2017-12-16T11:19:29.934Z,972.36
2017-12-16T11:20:39.649Z,972.37
2017-12-16T11:21:49.368Z,972.44
2017-12-16T11:22:59.132Z,972.42
2017-12-16T11:24:09.107Z,972.45
2017-12-16T11:25:18.825Z,972.44
2017-12-16T11:26:28.807Z,972.43
2017-12-16T11:27:38.516Z,972.39
2017-12-16T11:28:48.499Z,972.48
2017-12-16T11:29:58.475Z,972.48
2017-12-16T11:31:08.199Z,972.53
2017-12-16T11:32:18.180Z,972.51
2017-12-16T11:33:28.170Z,972.52
2017-12-16T11:34:37.893Z,972.59
2017-12-16T11:35:47.886Z,972.54
2017-12-16T11:36:57.863Z,972.59
2017-12-16T11:38:07.845Z,972.64
2017-12-16T11:39:17.831Z,972.64
2017-12-16T11:40:27.554Z,972.69
2017-12-16T11:41:37.533Z,972.66
2017-12-16T11:42:47.511Z,972.7
2017-12-16T11:43:57.506Z,972.7
2017-12-16T11:45:07.490Z,972.71
2017-12-16T11:46:17.476Z,972.76
2017-12-16T11:47:27.467Z,972.79
2017-12-16T11:48:37.451Z,972.83
2017-12-16T11:49:47.511Z,972.78
2017-12-16T11:50:57.489Z,972.87
2017-12-16T11:52:07.472Z,972.84
2017-12-16T11:53:17.468Z,972.81
2017-12-16T11:54:27.183Z,972.82
2017-12-16T11:55:36.898Z,972.82
2017-12-16T11:56:46.881Z,972.8
2017-12-16T11:57:56.609Z,972.81
2017-12-16T11:59:06.591Z,972.85
2017-12-16T12:00:16.650Z,972.84
2017-12-16T12:01:26.367Z,972.89
2017-12-16T12:02:36.084Z,972.89
2017-12-16T12:03:46.072Z,972.93
2017-12-16T12:04:55.786Z,972.9
2017-12-16T12:06:05.765Z,972.93
2017-12-16T12:07:15.217Z,972.92
2017-12-16T12:08:25.194Z,972.93
2017-12-16T12:09:35.184Z,972.9
2017-12-16T12:10:45.167Z,972.88
2017-12-16T12:11:55.143Z,972.92
2017-12-16T12:13:04.858Z,972.97
2017-12-16T12:14:14.836Z,973.02
2017-12-16T12:15:24.555Z,973
2017-12-16T12:16:34.281Z,973
2017-12-16T12:17:44.269Z,973.01
2017-12-16T12:18:54.247Z,973.02
2017-12-16T12:20:04.227Z,973.01
2017-12-16T12:21:14.208Z,973.01
2017-12-16T12:22:24.188Z,973.09
2017-12-16T12:23:34.223Z,973.08
2017-12-16T12:24:44.236Z,973.08
2017-12-16T12:25:53.953Z,973.08
2017-12-16T12:27:03.670Z,973.15
2017-12-16T12:28:13.386Z,973.09
2017-12-16T12:29:23.368Z,973.13
2017-12-16T12:30:33.355Z,973.16
2017-12-16T12:31:43.346Z,973.12
2017-12-16T12:32:53.333Z,973.06
2017-12-16T12:34:03.331Z,973.12
2017-12-16T12:35:13.307Z,973.12
2017-12-16T12:36:23.287Z,973.15
2017-12-16T12:37:33.274Z,973.18
2017-12-16T12:38:43.252Z,973.14
2017-12-16T12:39:53.231Z,973.23
2017-12-16T12:41:03.228Z,973.24
2017-12-16T12:42:12.950Z,973.3
2017-12-16T12:43:22.938Z,973.33
2017-12-16T12:44:32.926Z,973.36
2017-12-16T12:45:42.642Z,973.39
2017-12-16T12:46:52.627Z,973.39
2017-12-16T12:48:02.605Z,973.34
2017-12-16T12:49:12.584Z,973.39
2017-12-16T12:50:22.576Z,973.38
2017-12-16T12:51:32.572Z,973.41
2017-12-16T12:52:42.554Z,973.36
2017-12-16T12:53:52.536Z,973.44
2017-12-16T12:55:02.520Z,973.44
2017-12-16T12:56:12.501Z,973.44
2017-12-16T12:57:21.950Z,973.43
2017-12-16T12:58:31.935Z,973.45
2017-12-16T12:59:41.911Z,973.49
2017-12-16T13:00:51.982Z,973.49
2017-12-16T13:02:01.961Z,973.5
2017-12-16T13:03:12.010Z,973.5
2017-12-16T13:04:21.988Z,973.45
2017-12-16T13:05:31.707Z,973.46
2017-12-16T13:06:41.689Z,973.47
2017-12-16T13:07:51.672Z,973.45
2017-12-16T13:09:01.657Z,973.49
2017-12-16T13:10:11.638Z,973.48
2017-12-16T13:11:21.626Z,973.52
2017-12-16T13:12:31.615Z,973.51
2017-12-16T13:13:41.595Z,973.57
2017-12-16T13:14:51.312Z,973.54
2017-12-16T13:16:01.293Z,973.58
2017-12-16T13:17:11.013Z,973.61
2017-12-16T13:18:20.999Z,973.63
2017-12-16T13:19:30.985Z,973.66
2017-12-16T13:20:40.965Z,973.66
2017-12-16T13:21:50.693Z,973.68
2017-12-16T13:23:00.672Z,973.69
2017-12-16T13:24:10.386Z,973.7
2017-12-16T13:25:20.102Z,973.72
2017-12-16T13:26:29.815Z,973.74
2017-12-16T13:27:39.791Z,973.74
2017-12-16T13:28:49.502Z,973.83
2017-12-16T13:29:59.485Z,973.84
2017-12-16T13:31:09.197Z,973.83
2017-12-16T13:32:19.174Z,973.82
2017-12-16T13:33:29.188Z,973.86
2017-12-16T13:34:39.167Z,973.88
2017-12-16T13:35:49.151Z,973.93
2017-12-16T13:36:59.136Z,973.89
2017-12-16T13:38:09.119Z,973.95
2017-12-16T13:39:19.108Z,973.96
2017-12-16T13:40:29.388Z,973.97
2017-12-16T13:41:39.115Z,974.03
2017-12-16T13:42:48.832Z,974.01
2017-12-16T13:43:58.549Z,974.02
2017-12-16T13:45:08.004Z,974.08
2017-12-16T13:46:17.981Z,974.07
2017-12-16T13:47:27.961Z,974.08
2017-12-16T13:48:37.941Z,974.05
2017-12-16T13:49:48.055Z,974.1
2017-12-16T13:50:58.044Z,974.1
2017-12-16T13:52:07.755Z,974.07
2017-12-16T13:53:17.738Z,974.1
2017-12-16T13:54:27.716Z,974.13
2017-12-16T13:55:37.699Z,974.16
2017-12-16T13:56:47.677Z,974.21
2017-12-16T13:57:57.387Z,974.25
2017-12-16T13:59:07.364Z,974.24
2017-12-16T14:00:17.357Z,974.31
2017-12-16T14:01:27.070Z,974.29
2017-12-16T14:02:36.783Z,974.35
2017-12-16T14:03:46.763Z,974.37
2017-12-16T14:04:56.491Z,974.4
2017-12-16T14:06:06.201Z,974.4
2017-12-16T14:07:15.646Z,974.38
2017-12-16T14:08:25.362Z,974.4
2017-12-16T14:09:34.813Z,974.44
2017-12-16T14:10:44.535Z,974.43
2017-12-16T14:11:54.520Z,974.44
2017-12-16T14:13:04.234Z,974.46
2017-12-16T14:14:14.210Z,974.43
2017-12-16T14:15:24.193Z,974.45
2017-12-16T14:16:34.229Z,974.5
2017-12-16T14:17:44.216Z,974.53
2017-12-16T14:18:54.247Z,974.55
2017-12-16T14:20:03.966Z,974.54
2017-12-16T14:21:13.678Z,974.57
2017-12-16T14:22:23.658Z,974.6
2017-12-16T14:23:33.736Z,974.59
2017-12-16T14:24:43.724Z,974.62
2017-12-16T14:25:52.909Z,974.61
2017-12-16T14:27:02.889Z,974.65
2017-12-16T14:28:12.602Z,974.67
2017-12-16T14:29:22.312Z,974.64
2017-12-16T14:30:32.296Z,974.67
2017-12-16T14:31:42.008Z,974.69
2017-12-16T14:32:51.992Z,974.7
2017-12-16T14:34:01.977Z,974.73
2017-12-16T14:35:11.727Z,974.72
2017-12-16T14:36:21.760Z,974.75
2017-12-16T14:37:31.743Z,974.77
2017-12-16T14:38:41.721Z,974.78